Time;durP1;ratioP1;P1;durP2;ratioP2;P2;SDS_P1;SDS_P2;PMS_P1;PMS_P2;Temp;Humidity;BMP_temperature;BMP_pressure;BME280_temperature;BME280_humidity;BME280_pressure;Samples;Min_cycle;Max_cycle;Signal;HPM_P1;HPM_P2
2021/01/11 00:00:56;;;;;;;21.60;12.10;;;;;;;-3.19;78.62;99219.66;5073003;28;20052;-62
2021/01/11 00:03:21;;;;;;;21.37;12.47;;;;;;;-3.17;78.76;99218.06;5073547;28;20036;-62
2021/01/11 00:05:46;;;;;;;25.50;11.77;;;;;;;-3.21;78.64;99221.22;5074640;28;20321;-62
2021/01/11 00:08:12;;;;;;;20.97;11.83;;;;;;;-3.23;78.79;99220.31;5072926;28;20031;-62
2021/01/11 00:10:37;;;;;;;21.70;12.93;;;;;;;-3.22;78.50;99216.16;5073538;28;20028;-62
2021/01/11 00:13:03;;;;;;;23.90;13.20;;;;;;;-3.24;78.55;99218.56;5073018;28;20025;-62
2021/01/11 00:15:28;;;;;;;23.53;12.30;;;;;;;-3.29;78.07;99215.88;5074017;28;20032;-62
2021/01/11 00:17:54;;;;;;;23.53;12.53;;;;;;;-3.30;78.64;99209.13;5072742;28;20036;-62
2021/01/11 00:20:19;;;;;;;20.87;11.47;;;;;;;-3.31;78.18;99214.94;5073314;28;20024;-62
2021/01/11 00:22:45;;;;;;;22.33;11.47;;;;;;;-3.29;78.33;99210.84;5072997;28;20449;-62
2021/01/11 00:25:12;;;;;;;25.63;12.97;;;;;;;-3.28;78.65;99204.19;5074637;28;20114;-62
2021/01/11 00:27:37;;;;;;;21.67;11.40;;;;;;;-3.37;78.35;99202.13;5072936;28;20029;-62
2021/01/11 00:30:05;;;;;;;20.70;11.57;;;;;;;-3.31;78.39;99209.09;5074330;28;20029;-62
2021/01/11 00:32:38;;;;;;;22.47;13.23;;;;;;;-3.28;78.61;99206.69;5072711;28;20020;-62
2021/01/11 00:35:04;;;;;;;20.40;12.03;;;;;;;-3.31;78.48;99206.56;5071317;28;20441;-62
2021/01/11 00:37:30;;;;;;;25.67;13.77;;;;;;;-3.25;78.44;99204.31;5069807;28;20059;-62
2021/01/11 00:39:55;;;;;;;21.63;12.03;;;;;;;-3.19;78.22;99199.59;5070510;28;20028;-62
2021/01/11 00:42:21;;;;;;;25.03;11.80;;;;;;;-3.26;78.35;99197.59;5070339;28;20032;-62
2021/01/11 00:44:46;;;;;;;22.93;12.13;;;;;;;-3.27;77.58;99201.72;5071732;28;20067;-62
2021/01/11 00:47:12;;;;;;;22.40;12.10;;;;;;;-3.34;77.74;99204.78;5073267;28;20031;-61
2021/01/11 00:49:39;;;;;;;23.47;12.90;;;;;;;-3.34;78.34;99201.41;5073787;28;20028;-62
2021/01/11 00:52:05;;;;;;;24.67;13.40;;;;;;;-3.40;78.34;99204.50;5071435;28;20443;-62
2021/01/11 00:54:30;;;;;;;25.73;11.93;;;;;;;-3.52;79.06;99201.44;5070482;28;20070;-62
2021/01/11 00:56:55;;;;;;;26.73;13.07;;;;;;;-3.62;79.14;99200.97;5069696;28;20020;-62
2021/01/11 00:59:21;;;;;;;25.77;12.97;;;;;;;-3.73;79.54;99203.81;5070333;28;20028;-62
2021/01/11 01:01:50;;;;;;;25.23;13.50;;;;;;;-3.63;79.75;99199.25;5069966;28;20020;-62
2021/01/11 01:04:17;;;;;;;22.77;13.27;;;;;;;-3.59;79.84;99201.94;5069838;28;20020;-62
2021/01/11 01:06:42;;;;;;;23.27;12.13;;;;;;;-3.51;80.21;99208.16;5063936;28;20031;-62
2021/01/11 01:09:08;;;;;;;24.10;12.93;;;;;;;-3.31;79.24;99209.91;5070930;28;20099;-62
2021/01/11 01:11:37;;;;;;;22.93;11.87;;;;;;;-3.20;78.24;99209.53;5072357;28;20024;-62
2021/01/11 01:14:02;;;;;;;20.47;11.77;;;;;;;-3.17;77.91;99207.16;5071595;28;20054;-62
2021/01/11 01:16:28;;;;;;;25.73;13.03;;;;;;;-3.14;77.86;99200.63;5070545;28;20151;-62
2021/01/11 01:18:54;;;;;;;23.50;12.30;;;;;;;-3.22;78.42;99204.44;5070427;28;20115;-62
2021/01/11 01:21:20;;;;;;;23.60;12.10;;;;;;;-3.22;77.79;99201.13;5072058;28;20347;-61
2021/01/11 01:23:45;;;;;;;26.53;13.83;;;;;;;-3.17;77.57;99203.00;5072130;28;20036;-63
2021/01/11 01:26:11;;;;;;;21.83;11.87;;;;;;;-3.20;77.53;99207.03;5071843;28;20041;-64
2021/01/11 01:28:36;;;;;;;19.90;12.33;;;;;;;-3.23;77.68;99195.22;5076645;28;20028;-62
2021/01/11 01:31:01;;;;;;;24.07;13.20;;;;;;;-3.22;77.66;99198.59;5077373;28;20020;-63
2021/01/11 01:33:27;;;;;;;25.20;12.50;;;;;;;-3.16;77.08;99202.22;5076921;28;20055;-62
2021/01/11 01:35:52;;;;;;;21.63;12.40;;;;;;;-3.23;77.67;99195.22;5077010;28;20055;-63
2021/01/11 01:38:18;;;;;;;25.03;11.27;;;;;;;-3.20;77.05;99194.50;5075773;28;20036;-63
2021/01/11 01:40:45;;;;;;;18.07;10.90;;;;;;;-3.13;77.23;99198.97;5077370;28;20147;-63
2021/01/11 01:43:11;;;;;;;17.53;10.23;;;;;;;-3.15;77.09;99195.56;5075983;28;20115;-63
2021/01/11 01:45:37;;;;;;;22.90;12.00;;;;;;;-3.16;77.51;99188.81;5076927;28;20111;-63
2021/01/11 01:48:03;;;;;;;23.50;12.57;;;;;;;-3.19;77.57;99194.56;5075555;28;20108;-62
2021/01/11 01:50:29;;;;;;;25.70;13.10;;;;;;;-3.14;76.90;99187.25;5077068;28;20063;-63
2021/01/11 01:52:54;;;;;;;21.23;12.00;;;;;;;-3.24;77.22;99186.00;5076840;28;20349;-63
2021/01/11 01:55:20;;;;;;;22.00;12.33;;;;;;;-3.17;77.00;99185.47;5076866;28;20041;-63
2021/01/11 01:57:47;;;;;;;23.73;12.37;;;;;;;-3.18;77.22;99186.25;5075255;28;20024;-62
2021/01/11 02:00:14;;;;;;;23.73;12.10;;;;;;;-3.26;77.35;99182.53;5073493;28;20445;-63
2021/01/11 02:02:39;;;;;;;19.13;10.57;;;;;;;-3.27;77.28;99181.69;5076181;28;20115;-63
2021/01/11 02:05:06;;;;;;;23.50;13.17;;;;;;;-3.21;77.47;99186.13;5075557;28;20131;-63
2021/01/11 02:07:40;;;;;;;21.13;11.37;;;;;;;-3.24;77.57;99180.97;5075238;28;20032;-63
2021/01/11 02:10:20;;;;;;;21.37;11.03;;;;;;;-3.26;77.04;99182.53;5075037;28;20050;-62
2021/01/11 02:13:14;;;;;;;19.40;11.10;;;;;;;-3.24;77.35;99181.84;5074197;28;20383;-63
2021/01/11 02:15:50;;;;;;;22.17;12.30;;;;;;;-3.29;77.03;99180.78;5072783;28;20043;-62
2021/01/11 02:18:27;;;;;;;22.00;11.33;;;;;;;-3.19;77.09;99176.16;5076289;28;20039;-63
2021/01/11 02:21:07;;;;;;;26.63;12.23;;;;;;;-3.24;77.24;99175.97;5076417;28;20036;-63
2021/01/11 02:23:41;;;;;;;20.10;11.13;;;;;;;-3.18;76.62;99181.22;5076183;28;20037;-63
2021/01/11 02:26:34;;;;;;;20.87;11.87;;;;;;;-3.18;77.15;99166.19;5076062;28;20107;-63
2021/01/11 02:29:40;;;;;;;23.03;11.77;;;;;;;-3.16;76.74;99164.63;5075836;28;20116;-63
2021/01/11 02:32:08;;;;;;;23.38;11.63;;;;;;;-3.18;76.89;99170.38;5029840;28;20479;-63
2021/01/11 02:34:33;;;;;;;19.60;11.93;;;;;;;-3.27;77.44;99169.16;5074104;28;20043;-63
2021/01/11 02:37:00;;;;;;;21.23;11.53;;;;;;;-3.23;77.26;99167.66;5075038;28;20037;-63
2021/01/11 02:39:25;;;;;;;20.53;11.47;;;;;;;-3.28;77.09;99166.59;5074088;28;20096;-63
2021/01/11 02:41:51;;;;;;;20.00;11.57;;;;;;;-3.22;76.72;99166.84;5075367;28;20064;-63
2021/01/11 02:44:17;;;;;;;17.20;10.37;;;;;;;-3.28;77.47;99169.97;5075235;28;20093;-63
2021/01/11 02:46:42;;;;;;;21.43;12.13;;;;;;;-3.34;77.04;99167.19;5074149;28;20066;-63
2021/01/11 02:49:23;;;;;;;22.43;12.30;;;;;;;-3.33;77.29;99155.50;5074926;28;20036;-63
2021/01/11 02:52:07;;;;;;;21.53;10.73;;;;;;;-3.35;77.30;99159.56;5073979;28;20024;-63
2021/01/11 02:54:49;;;;;;;23.40;12.90;;;;;;;-3.40;77.08;99161.06;5075586;28;20050;-63
2021/01/11 02:57:32;;;;;;;21.07;11.50;;;;;;;-3.43;77.04;99155.88;5075436;28;20060;-63
2021/01/11 03:00:02;;;;;;;20.47;10.63;;;;;;;-3.39;77.29;99151.06;5075265;28;20051;-63
2021/01/11 03:02:31;;;;;;;22.97;11.33;;;;;;;-3.46;77.00;99148.22;5075094;28;20032;-63
2021/01/11 03:04:57;;;;;;;23.07;11.93;;;;;;;-3.45;77.55;99153.31;5075095;28;20125;-63
2021/01/11 03:07:23;;;;;;;18.40;9.83;;;;;;;-3.47;77.29;99144.88;5075361;28;20112;-63
2021/01/11 03:09:49;;;;;;;19.53;10.40;;;;;;;-3.47;76.91;99144.88;5074844;28;20047;-62
2021/01/11 03:12:15;;;;;;;22.73;10.57;;;;;;;-3.45;76.98;99142.44;5075294;28;20487;-61
2021/01/11 03:14:41;;;;;;;20.33;10.60;;;;;;;-3.43;77.27;99143.34;5074288;28;20024;-63
2021/01/11 03:17:06;;;;;;;20.57;11.13;;;;;;;-3.49;77.44;99153.13;5075540;28;20099;-61
2021/01/11 03:19:32;;;;;;;22.97;12.17;;;;;;;-3.43;77.19;99139.19;5073937;28;20165;-63
2021/01/11 03:21:58;;;;;;;25.00;12.03;;;;;;;-3.39;77.27;99143.56;5075162;28;20031;-62
2021/01/11 03:24:24;;;;;;;19.53;10.37;;;;;;;-3.37;77.03;99141.13;5073981;28;20025;-61
2021/01/11 03:26:50;;;;;;;19.70;10.23;;;;;;;-3.35;77.13;99147.03;5073967;28;20086;-63
2021/01/11 03:29:17;;;;;;;18.17;10.30;;;;;;;-3.26;76.91;99139.94;5074344;28;20115;-61
2021/01/11 03:31:43;;;;;;;18.87;10.07;;;;;;;-3.37;76.62;99136.97;5075347;28;20043;-63
2021/01/11 03:34:09;;;;;;;19.30;10.57;;;;;;;-3.43;76.62;99143.34;5073989;28;20020;-61
2021/01/11 03:36:36;;;;;;;16.20;10.50;;;;;;;-3.53;76.89;99142.09;5074258;28;20049;-61
2021/01/11 03:39:03;;;;;;;20.60;10.67;;;;;;;-3.48;76.59;99139.81;5073766;28;20476;-61
2021/01/11 03:41:28;;;;;;;20.83;11.33;;;;;;;-3.54;76.79;99139.53;5075473;28;20040;-61
2021/01/11 03:43:54;;;;;;;16.43;9.93;;;;;;;-3.54;76.60;99135.38;5073187;28;20090;-61
2021/01/11 03:46:19;;;;;;;19.13;10.20;;;;;;;-3.55;76.51;99137.81;5054431;28;20049;-61
2021/01/11 03:48:45;;;;;;;20.30;10.63;;;;;;;-3.62;76.95;99130.81;5053662;28;20032;-61
2021/01/11 03:51:11;;;;;;;19.30;9.87;;;;;;;-3.60;76.95;99131.72;5072199;28;20043;-63
2021/01/11 03:53:37;;;;;;;19.73;10.00;;;;;;;-3.62;76.92;99136.69;5074461;28;20115;-62
2021/01/11 03:56:09;;;;;;;19.10;10.87;;;;;;;-3.58;77.01;99122.63;5072645;28;20016;-63
2021/01/11 03:58:35;;;;;;;19.90;11.27;;;;;;;-3.74;78.03;99132.00;5072851;28;20115;-61
2021/01/11 04:01:01;;;;;;;19.60;9.63;;;;;;;-3.79;78.37;99127.56;5074030;28;20361;-61
2021/01/11 04:03:27;;;;;;;20.07;10.30;;;;;;;-3.69;78.02;99132.16;5074553;28;20120;-61
2021/01/11 04:05:54;;;;;;;18.23;10.70;;;;;;;-3.64;77.84;99137.38;5072630;28;20036;-61
2021/01/11 04:08:19;;;;;;;21.03;11.27;;;;;;;-3.66;77.51;99134.84;5075028;28;20039;-61
2021/01/11 04:10:45;;;;;;;16.23;8.87;;;;;;;-3.63;77.57;99137.47;5073356;28;20024;-61
2021/01/11 04:13:10;;;;;;;17.83;10.23;;;;;;;-3.59;77.54;99140.97;5074677;28;20438;-61
2021/01/11 04:15:36;;;;;;;21.30;11.43;;;;;;;-3.62;77.40;99140.84;5073240;28;20016;-61
2021/01/11 04:18:02;;;;;;;19.60;10.10;;;;;;;-3.62;76.93;99136.69;5073127;28;20465;-61
2021/01/11 04:20:28;;;;;;;15.03;9.30;;;;;;;-3.65;76.91;99138.19;5073385;28;20341;-60
2021/01/11 04:22:54;;;;;;;16.13;10.40;;;;;;;-3.73;77.49;99133.69;5074223;28;20349;-61
2021/01/11 04:25:19;;;;;;;17.77;10.37;;;;;;;-3.76;77.36;99140.22;5073000;28;20036;-62
2021/01/11 04:27:45;;;;;;;20.63;11.33;;;;;;;-3.63;76.92;99137.47;5073973;28;20024;-62
2021/01/11 04:30:11;;;;;;;21.43;11.57;;;;;;;-3.59;77.20;99130.94;5073405;28;20039;-62
2021/01/11 04:32:38;;;;;;;18.43;10.57;;;;;;;-3.55;76.58;99141.16;5073737;28;20044;-62
2021/01/11 04:35:08;;;;;;;19.43;10.30;;;;;;;-3.67;76.58;99138.13;5073028;28;20035;-62
2021/01/11 04:37:35;;;;;;;16.77;9.03;;;;;;;-3.79;77.42;99140.94;5074355;28;20044;-62
2021/01/11 04:40:01;;;;;;;19.37;9.83;;;;;;;-3.89;76.89;99141.31;5073072;28;20047;-62
2021/01/11 04:42:30;;;;;;;17.93;11.00;;;;;;;-3.73;77.04;99148.72;5074432;28;20032;-61
2021/01/11 04:44:56;;;;;;;13.90;9.00;;;;;;;-3.78;76.98;99145.13;5072695;28;20020;-62
2021/01/11 04:47:24;;;;;;;15.87;10.53;;;;;;;-3.70;77.39;99150.53;5071672;28;20082;-62
2021/01/11 04:49:52;;;;;;;23.33;10.37;;;;;;;-3.78;77.80;99154.31;5072578;28;20028;-62
2021/01/11 04:52:18;;;;;;;18.43;8.97;;;;;;;-3.81;77.28;99150.03;5072654;28;20516;-62
2021/01/11 04:54:49;;;;;;;16.27;9.77;;;;;;;-3.78;77.42;99155.16;5073635;28;20028;-62
2021/01/11 04:57:15;;;;;;;18.47;9.17;;;;;;;-3.83;77.80;99149.09;5073682;28;20028;-62
2021/01/11 04:59:50;;;;;;;19.77;10.50;;;;;;;-3.71;77.96;99149.66;5073983;28;20106;-62
2021/01/11 05:02:21;;;;;;;19.90;10.27;;;;;;;-3.61;77.18;99147.56;5074027;28;20028;-61
2021/01/11 05:04:47;;;;;;;19.10;11.03;;;;;;;-3.50;76.97;99148.88;5074266;28;20103;-62
2021/01/11 05:07:15;;;;;;;19.50;10.27;;;;;;;-3.48;77.03;99149.84;5073328;28;20032;-62
2021/01/11 05:09:44;;;;;;;19.93;10.57;;;;;;;-3.35;76.70;99147.03;5072916;28;20074;-62
2021/01/11 05:12:12;;;;;;;20.83;11.57;;;;;;;-3.31;76.32;99158.94;5073677;28;20338;-62
2021/01/11 05:14:37;;;;;;;16.53;9.33;;;;;;;-3.39;75.99;99165.25;5073072;28;20082;-62
2021/01/11 05:17:04;;;;;;;22.00;10.67;;;;;;;-3.50;76.21;99164.78;5072646;28;20025;-62
2021/01/11 05:19:30;;;;;;;19.33;9.50;;;;;;;-3.67;76.71;99164.81;5073345;28;20021;-62
2021/01/11 05:21:55;;;;;;;19.60;10.50;;;;;;;-3.85;77.33;99174.84;5071963;28;20103;-62
2021/01/11 05:24:27;;;;;;;20.57;10.60;;;;;;;-3.91;77.74;99175.44;5074359;28;20107;-62
2021/01/11 05:26:53;;;;;;;25.57;12.37;;;;;;;-4.07;78.03;99172.16;5072795;28;20415;-62
2021/01/11 05:29:18;;;;;;;19.40;10.73;;;;;;;-4.01;78.14;99172.44;5073396;28;20108;-62
2021/01/11 05:31:58;;;;;;;22.77;11.67;;;;;;;-3.89;77.45;99176.34;5072698;28;20012;-62
2021/01/11 05:34:43;;;;;;;20.50;10.40;;;;;;;-3.98;78.05;99178.44;5073304;28;20024;-62
2021/01/11 05:37:09;;;;;;;15.30;9.95;;;;;;;-3.74;76.94;99172.06;5071740;28;20549;-62
2021/01/11 05:39:34;;;;;;;18.70;9.87;;;;;;;-3.65;77.02;99174.13;5072581;28;20028;-62
2021/01/11 05:41:59;;;;;;;16.40;8.27;;;;;;;-3.48;76.48;99177.41;5072425;28;20033;-62
2021/01/11 05:44:25;;;;;;;15.70;8.93;;;;;;;-3.34;75.72;99174.69;5073066;28;20033;-62
2021/01/11 05:46:51;;;;;;;15.87;10.00;;;;;;;-3.26;75.93;99180.03;5072202;28;20068;-62
2021/01/11 05:49:16;;;;;;;20.40;10.90;;;;;;;-3.36;76.23;99165.41;5071663;28;20024;-62
2021/01/11 05:51:41;;;;;;;16.60;9.03;;;;;;;-3.29;75.56;99167.38;5072586;28;20111;-62
2021/01/11 05:54:24;;;;;;;15.60;9.07;;;;;;;-3.25;75.80;99170.09;5071748;28;20422;-62
2021/01/11 05:56:55;;;;;;;20.90;10.70;;;;;;;-3.39;75.93;99167.75;5073541;28;20103;-62
2021/01/11 05:59:20;;;;;;;16.33;10.87;;;;;;;-3.39;75.48;99170.25;5072045;28;20043;-62
2021/01/11 06:01:46;;;;;;;16.83;9.47;;;;;;;-3.40;76.17;99166.94;5072923;28;20024;-62
2021/01/11 06:04:11;;;;;;;16.87;8.93;;;;;;;-3.33;75.75;99171.41;5072330;28;20043;-63
2021/01/11 06:06:38;;;;;;;17.57;8.50;;;;;;;-3.31;75.61;99174.81;5072230;28;20033;-62
2021/01/11 06:09:04;;;;;;;17.20;9.70;;;;;;;-3.38;76.08;99177.00;5072687;28;20081;-62
2021/01/11 06:11:30;;;;;;;22.93;11.90;;;;;;;-3.45;76.04;99183.41;5072102;28;20033;-62
2021/01/11 06:13:58;;;;;;;26.63;12.50;;;;;;;-3.44;76.28;99177.59;5074962;28;20437;-63
2021/01/11 06:16:26;;;;;;;18.37;10.23;;;;;;;-3.47;76.59;99179.09;5075610;28;20036;-63
2021/01/11 06:18:52;;;;;;;15.17;8.77;;;;;;;-3.39;75.84;99180.28;5076723;28;20032;-62
2021/01/11 06:21:20;;;;;;;16.87;9.93;;;;;;;-3.44;76.45;99176.75;5073870;28;20075;-62
2021/01/11 06:23:45;;;;;;;18.20;11.10;;;;;;;-3.37;75.76;99188.75;5076265;28;20024;-63
2021/01/11 06:26:30;;;;;;;19.17;9.37;;;;;;;-3.36;75.51;99187.97;5076240;28;20032;-63
2021/01/11 06:28:57;;;;;;;17.23;9.90;;;;;;;-3.43;75.63;99190.97;5075991;28;20039;-62
2021/01/11 06:31:29;;;;;;;16.63;9.80;;;;;;;-3.52;76.09;99183.06;5076289;28;20274;-62
2021/01/11 06:33:55;;;;;;;18.93;9.67;;;;;;;-3.58;75.52;99188.66;5076869;28;20040;-62
2021/01/11 06:36:33;;;;;;;18.37;10.40;;;;;;;-3.54;75.36;99189.63;5074958;28;20094;-62
2021/01/11 06:39:07;;;;;;;17.93;9.73;;;;;;;-3.60;75.87;99187.69;5072829;28;20413;-62
2021/01/11 06:41:32;;;;;;;22.40;12.33;;;;;;;-3.60;75.83;99189.34;5059092;28;20044;-62
2021/01/11 06:44:08;;;;;;;19.10;10.33;;;;;;;-3.45;75.76;99193.41;5075957;28;20437;-62
2021/01/11 06:46:43;;;;;;;21.43;9.97;;;;;;;-3.56;76.23;99201.22;5074324;28;20020;-62
2021/01/11 06:49:25;;;;;;;20.05;10.70;;;;;;;-3.54;75.61;99199.66;5076515;28;20028;-63
2021/01/11 06:52:01;;;;;;;25.33;11.67;;;;;;;-3.49;76.12;99203.25;5075864;28;20357;-63
2021/01/11 06:54:38;;;;;;;18.87;10.03;;;;;;;-3.42;75.34;99201.06;5075060;28;20036;-63
2021/01/11 06:57:09;;;;;;;19.77;10.40;;;;;;;-3.50;75.82;99206.53;5075220;28;20013;-63
2021/01/11 06:59:38;;;;;;;19.97;9.93;;;;;;;-3.41;75.34;99207.81;5075074;28;20095;-63
2021/01/11 07:02:24;;;;;;;18.33;9.70;;;;;;;-3.44;75.44;99204.31;5074853;28;20081;-64
2021/01/11 07:04:50;;;;;;;15.67;9.10;;;;;;;-3.48;74.84;99202.44;5075362;28;20086;-65
2021/01/11 07:07:25;;;;;;;19.07;9.37;;;;;;;-3.45;74.82;99205.94;5075619;28;20013;-64
2021/01/11 07:09:54;;;;;;;17.15;10.07;;;;;;;-3.39;74.83;99207.84;5073754;28;20024;-64
2021/01/11 07:12:20;;;;;;;18.43;9.00;;;;;;;-3.50;75.29;99204.03;5075181;28;20039;-63
2021/01/11 07:15:18;;;;;;;16.00;8.47;;;;;;;-3.33;74.92;99206.50;5074140;28;20028;-63
2021/01/11 07:17:48;;;;;;;18.67;9.70;;;;;;;-3.34;74.91;99209.78;5073384;28;20461;-63
2021/01/11 07:20:16;;;;;;;15.10;8.50;;;;;;;-3.30;75.04;99220.78;5071341;28;20062;-63
2021/01/11 07:22:43;;;;;;;17.63;9.80;;;;;;;-3.23;75.07;99220.31;5074074;28;20111;-63
2021/01/11 07:25:18;;;;;;;16.17;9.67;;;;;;;-3.18;74.67;99215.50;5074094;28;20480;-63
2021/01/11 07:27:44;;;;;;;15.98;9.85;;;;;;;-3.05;75.04;99218.59;5074721;28;20044;-63
2021/01/11 07:30:11;;;;;;;20.13;9.93;;;;;;;-2.90;74.06;99219.25;5075086;28;20032;-63
2021/01/11 07:32:36;;;;;;;15.60;8.83;;;;;;;-2.89;73.26;99221.00;5073488;28;20027;-63
2021/01/11 07:35:03;;;;;;;18.13;9.30;;;;;;;-2.77;73.56;99221.50;5074815;28;20068;-63
2021/01/11 07:37:28;;;;;;;16.77;8.97;;;;;;;-2.79;73.61;99217.19;5073909;28;20078;-63
2021/01/11 07:39:54;;;;;;;14.73;8.23;;;;;;;-2.58;73.33;99223.13;5073960;28;20029;-64
2021/01/11 07:42:20;;;;;;;16.73;8.40;;;;;;;-2.50;73.17;99224.28;5074247;28;20032;-63
2021/01/11 07:44:46;;;;;;;16.00;10.40;;;;;;;-2.39;73.08;99212.22;5074875;28;20028;-64
2021/01/11 07:47:16;;;;;;;22.87;10.47;;;;;;;-2.29;72.62;99213.44;5073860;28;20025;-64
2021/01/11 07:49:44;;;;;;;17.03;9.83;;;;;;;-2.16;72.59;99219.00;5074780;28;20031;-63
2021/01/11 07:52:11;;;;;;;15.13;7.73;;;;;;;-2.17;71.98;99219.81;5073561;28;20363;-63
2021/01/11 07:54:38;;;;;;;16.00;8.20;;;;;;;-2.04;72.58;99221.16;5074361;28;20154;-63
2021/01/11 07:57:09;;;;;;;15.57;9.57;;;;;;;-1.92;72.09;99214.13;5074041;28;20024;-63
2021/01/11 07:59:34;;;;;;;15.07;8.50;;;;;;;-1.84;71.27;99222.81;5074707;28;20339;-63
2021/01/11 08:02:02;;;;;;;13.87;7.53;;;;;;;-1.81;71.55;99222.06;5073302;28;20040;-64
2021/01/11 08:04:35;;;;;;;14.67;8.03;;;;;;;-1.67;71.33;99223.47;5074227;28;20055;-63
2021/01/11 08:07:04;;;;;;;13.13;7.93;;;;;;;-1.81;70.96;99230.47;5073689;28;20028;-63
2021/01/11 08:09:30;;;;;;;13.13;8.23;;;;;;;-1.60;70.88;99236.31;5074249;28;20031;-64
2021/01/11 08:12:17;;;;;;;14.53;7.53;;;;;;;-1.54;70.17;99234.03;5073120;28;20311;-64
2021/01/11 08:14:47;;;;;;;14.50;7.47;;;;;;;-1.44;69.83;99236.09;5074451;28;20028;-64
2021/01/11 08:17:14;;;;;;;12.40;6.63;;;;;;;-1.50;69.90;99237.53;5072865;28;20091;-64
2021/01/11 08:19:41;;;;;;;9.73;6.03;;;;;;;-1.37;69.47;99234.69;5074886;28;20036;-64
2021/01/11 08:22:09;;;;;;;15.13;8.50;;;;;;;-1.38;69.88;99230.44;5072591;28;20043;-64
2021/01/11 08:24:36;;;;;;;13.00;6.90;;;;;;;-1.36;69.26;99235.53;5071599;28;20066;-63
2021/01/11 08:27:05;;;;;;;13.90;7.83;;;;;;;-1.30;69.26;99236.63;5067576;28;20087;-63
2021/01/11 08:29:36;;;;;;;16.27;7.67;;;;;;;-1.16;68.68;99235.47;5061544;28;20035;-63
2021/01/11 08:32:09;;;;;;;14.80;7.80;;;;;;;-1.10;68.86;99238.19;5069902;28;20399;-63
2021/01/11 08:34:34;;;;;;;13.30;6.87;;;;;;;-1.21;68.53;99243.66;5071310;28;20035;-63
2021/01/11 08:37:00;;;;;;;13.97;7.43;;;;;;;-1.03;68.33;99234.25;5072651;28;20424;-63
2021/01/11 08:39:25;;;;;;;13.77;7.03;;;;;;;-1.06;67.70;99249.25;5073959;28;20028;-62
2021/01/11 08:41:54;;;;;;;14.40;7.47;;;;;;;-0.89;67.79;99248.19;5073866;28;20662;-63
2021/01/11 08:44:33;;;;;;;13.27;6.97;;;;;;;-0.81;67.45;99241.78;5073356;28;20028;-63
2021/01/11 08:47:04;;;;;;;10.30;6.57;;;;;;;-0.80;66.81;99246.00;5073626;28;20021;-62
2021/01/11 08:49:30;;;;;;;12.30;7.73;;;;;;;-0.77;67.44;99245.25;5073763;28;20033;-63
2021/01/11 08:52:06;;;;;;;8.90;6.50;;;;;;;-0.69;66.41;99247.25;5073476;28;20039;-62
2021/01/11 08:54:32;;;;;;;10.80;6.90;;;;;;;-0.54;66.04;99251.94;5066679;28;20037;-63
2021/01/11 08:57:08;;;;;;;12.00;5.40;;;;;;;-0.43;66.10;99248.16;5067195;28;20062;-62
2021/01/11 08:59:33;;;;;;;11.07;6.33;;;;;;;-0.58;66.13;99252.63;5062704;28;20094;-62
2021/01/11 09:01:59;;;;;;;10.40;6.20;;;;;;;-0.47;65.89;99262.28;5068573;28;20037;-61
2021/01/11 09:04:35;;;;;;;11.37;6.87;;;;;;;-0.24;65.16;99259.69;5073195;28;20028;-61
2021/01/11 09:07:03;;;;;;;12.73;6.83;;;;;;;-0.23;65.18;99256.38;5067626;28;20100;-61
2021/01/11 09:09:30;;;;;;;13.37;6.97;;;;;;;-0.15;64.25;99258.34;5073510;28;20036;-61
2021/01/11 09:12:06;;;;;;;11.77;6.87;;;;;;;-0.04;63.96;99257.00;5073688;28;20032;-63
2021/01/11 09:14:51;;;;;;;11.90;7.00;;;;;;;-0.14;65.25;99255.03;5070548;28;20033;-62
2021/01/11 09:17:24;;;;;;;14.40;6.77;;;;;;;0.11;64.03;99266.75;5065325;28;20029;-63
2021/01/11 09:19:50;;;;;;;12.53;6.60;;;;;;;0.24;63.42;99262.97;5068324;28;20094;-63
2021/01/11 09:22:15;;;;;;;14.40;7.43;;;;;;;0.18;62.96;99272.84;5070631;28;20028;-63
2021/01/11 09:24:44;;;;;;;11.63;6.93;;;;;;;0.31;63.08;99280.84;5070726;28;20357;-64
2021/01/11 09:27:10;;;;;;;13.10;6.40;;;;;;;0.21;63.06;99278.00;5071214;28;20453;-64
2021/01/11 09:29:37;;;;;;;11.67;7.27;;;;;;;0.27;63.58;99278.19;5071360;28;20111;-64
2021/01/11 09:32:04;;;;;;;12.20;6.60;;;;;;;0.08;62.56;99276.75;5069498;28;20024;-63
2021/01/11 09:34:29;;;;;;;10.03;6.10;;;;;;;0.16;62.78;99282.03;5071118;28;20028;-63
2021/01/11 09:36:55;;;;;;;10.40;6.27;;;;;;;0.31;62.93;99274.94;5071804;28;20131;-63
2021/01/11 09:39:20;;;;;;;9.30;5.97;;;;;;;0.56;61.47;99274.03;5071656;28;20040;-63
2021/01/11 09:41:48;;;;;;;9.20;5.57;;;;;;;0.52;60.97;99273.09;5069385;28;20032;-63
2021/01/11 09:44:15;;;;;;;9.07;4.80;;;;;;;0.42;61.59;99279.50;5069980;28;20394;-64
2021/01/11 09:46:53;;;;;;;10.63;5.90;;;;;;;0.56;61.30;99266.47;5070038;28;20020;-63
2021/01/11 09:49:20;;;;;;;12.57;6.50;;;;;;;0.38;62.37;99267.59;5075115;28;20424;-63
2021/01/11 09:51:46;;;;;;;11.03;5.47;;;;;;;0.43;61.93;99266.09;5074066;28;20032;-63
2021/01/11 09:54:11;;;;;;;11.87;6.63;;;;;;;0.65;61.77;99265.09;5075238;28;20043;-63
2021/01/11 09:56:38;;;;;;;8.93;5.23;;;;;;;0.73;61.45;99266.16;5075059;28;20024;-63
2021/01/11 09:59:07;;;;;;;8.87;5.23;;;;;;;0.67;60.84;99265.16;5074857;28;20334;-64
2021/01/11 10:01:44;;;;;;;11.03;6.23;;;;;;;0.57;60.75;99250.53;5074747;28;20452;-62
2021/01/11 10:04:11;;;;;;;8.90;5.67;;;;;;;0.68;61.57;99249.22;5075332;28;20024;-63
2021/01/11 10:06:45;;;;;;;9.37;6.23;;;;;;;0.79;60.75;99250.38;5074805;28;20130;-63
2021/01/11 10:09:12;;;;;;;7.63;5.10;;;;;;;0.79;60.54;99250.38;5069447;28;20372;-63
2021/01/11 10:11:38;;;;;;;6.87;4.83;;;;;;;0.83;60.18;99242.94;5072689;28;20445;-63
2021/01/11 10:14:07;;;;;;;10.70;4.70;;;;;;;0.97;59.80;99248.38;5070573;28;20036;-63
2021/01/11 10:16:38;;;;;;;9.57;5.97;;;;;;;1.12;59.38;99247.94;5072889;28;20032;-63
2021/01/11 10:19:03;;;;;;;8.87;5.10;;;;;;;1.09;58.66;99241.16;5074593;28;20046;-62
2021/01/11 10:21:28;;;;;;;8.90;6.73;;;;;;;1.18;58.67;99249.00;5073326;28;20032;-63
2021/01/11 10:23:54;;;;;;;9.20;5.67;;;;;;;1.33;58.33;99241.81;5075294;28;20445;-64
2021/01/11 10:26:22;;;;;;;9.40;5.43;;;;;;;1.38;58.25;99235.22;5071399;28;20064;-63
2021/01/11 10:28:49;;;;;;;10.57;5.10;;;;;;;1.19;58.13;99235.53;5072840;28;20032;-63
2021/01/11 10:31:15;;;;;;;7.77;4.97;;;;;;;1.28;58.52;99235.78;5071896;28;20085;-64
2021/01/11 10:33:41;;;;;;;12.33;6.33;;;;;;;1.42;57.88;99233.63;5073471;28;20089;-64
2021/01/11 10:36:07;;;;;;;12.97;5.73;;;;;;;1.42;58.16;99226.06;5073246;28;20036;-63
2021/01/11 10:38:32;;;;;;;8.77;5.47;;;;;;;1.31;57.49;99220.75;5073473;28;20025;-63
2021/01/11 10:40:58;;;;;;;8.17;5.37;;;;;;;1.54;57.92;99211.22;5075699;28;20024;-63
2021/01/11 10:43:24;;;;;;;7.10;4.67;;;;;;;1.49;56.87;99215.28;5075400;28;20369;-63
2021/01/11 10:45:49;;;;;;;9.40;4.87;;;;;;;1.63;57.44;99211.47;5069995;28;20101;-63
2021/01/11 10:48:15;;;;;;;10.07;5.07;;;;;;;1.51;56.75;99216.19;5073990;28;20433;-64
2021/01/11 10:50:40;;;;;;;7.83;5.17;;;;;;;1.55;57.58;99209.56;5073268;28;20437;-64
2021/01/11 10:53:05;;;;;;;9.37;6.70;;;;;;;1.67;57.72;99205.66;5074629;28;20028;-64
2021/01/11 10:55:31;;;;;;;11.37;6.27;;;;;;;1.71;57.67;99194.81;5074096;28;20467;-63
2021/01/11 10:57:56;;;;;;;10.53;5.90;;;;;;;1.65;57.29;99193.81;5072272;28;20032;-63
2021/01/11 11:00:22;;;;;;;9.23;5.10;;;;;;;1.74;57.81;99196.59;5071113;28;20032;-64
2021/01/11 11:02:47;;;;;;;10.70;5.97;;;;;;;1.33;57.97;99196.38;5072762;28;20029;-64
2021/01/11 11:05:13;;;;;;;17.03;10.13;;;;;;;1.64;58.14;99192.09;5074985;28;20037;-64
2021/01/11 11:07:39;;;;;;;13.80;8.97;;;;;;;1.97;56.99;99190.41;5069186;28;20025;-64
2021/01/11 11:10:06;;;;;;;11.70;7.47;;;;;;;2.15;55.64;99184.91;5072532;28;20064;-63
2021/01/11 11:12:32;;;;;;;10.67;6.13;;;;;;;2.32;55.70;99182.78;5073093;28;20021;-64
2021/01/11 11:14:59;;;;;;;15.83;9.43;;;;;;;2.25;56.23;99181.75;5073454;28;20455;-64
2021/01/11 11:17:29;;;;;;;10.30;6.23;;;;;;;2.35;55.65;99187.91;5072270;28;20027;-64
2021/01/11 11:19:54;;;;;;;11.17;7.00;;;;;;;2.55;54.33;99179.91;5072504;28;20020;-64
2021/01/11 11:22:20;;;;;;;13.13;8.07;;;;;;;2.52;54.49;99174.78;5072560;28;20032;-64
2021/01/11 11:24:45;;;;;;;10.77;7.40;;;;;;;2.66;53.81;99164.97;5072103;28;20047;-63
2021/01/11 11:27:10;;;;;;;13.40;8.10;;;;;;;2.73;53.65;99169.31;5074423;28;20119;-65
2021/01/11 11:29:36;;;;;;;12.23;6.67;;;;;;;2.70;52.70;99161.69;5071701;28;20460;-63